createdAt,value
2017-05-01T00:01:08.446Z,61.13
2017-05-01T00:02:29.954Z,61.42
2017-05-01T00:03:51.799Z,61.71
2017-05-01T00:05:14.650Z,61.71
2017-05-01T00:06:37.108Z,61.99
2017-05-01T00:07:59.605Z,61.8
2017-05-01T00:09:21.477Z,61.99
2017-05-01T00:10:44.270Z,62.08
2017-05-01T00:12:06.318Z,62.46
2017-05-01T00:13:28.478Z,61.99
2017-05-01T00:14:50.312Z,62.65
2017-05-01T00:16:13.076Z,62.46
2017-05-01T00:17:35.219Z,62.46
2017-05-01T00:18:56.714Z,62.56
2017-05-01T00:20:19.281Z,63.04
2017-05-01T00:21:41.098Z,63.04
2017-05-01T00:23:03.258Z,63.13
2017-05-01T00:24:25.398Z,63.23
2017-05-01T00:25:47.930Z,63.7
2017-05-01T00:27:10.408Z,63.51
2017-05-01T00:28:32.138Z,63.79
2017-05-01T00:29:53.679Z,63.79
2017-05-01T00:31:15.330Z,63.79
2017-05-01T00:32:37.478Z,63.99
2017-05-01T00:33:59.627Z,64.56
2017-05-01T00:35:21.506Z,64.24
2017-05-01T00:36:43.021Z,64.43
2017-05-01T00:38:04.857Z,64.81
2017-05-01T00:39:26.709Z,64.43
2017-05-01T00:40:48.856Z,64.81
2017-05-01T00:42:11.008Z,65.28
2017-05-01T00:43:33.518Z,65.67
2017-05-01T00:44:55.056Z,65.57
2017-05-01T00:46:17.217Z,65.57
2017-05-01T00:47:39.399Z,65.76
2017-05-01T00:49:01.955Z,65.95
2017-05-01T00:50:24.647Z,65.76
2017-05-01T00:51:46.800Z,65.95
2017-05-01T00:53:08.655Z,65.86
2017-05-01T00:54:30.734Z,65.95
2017-05-01T00:55:52.246Z,66.42
2017-05-01T00:57:14.523Z,66.52
2017-05-01T00:58:36.984Z,66.9
2017-05-01T00:59:59.187Z,66.61
2017-05-01T01:01:21.073Z,67.38
2017-05-01T01:02:42.599Z,67.38
2017-05-01T01:04:04.847Z,67
2017-05-01T01:05:27.333Z,67.76
2017-05-01T01:06:48.268Z,67.57
2017-05-01T01:08:10.189Z,67.47
2017-05-01T01:09:32.034Z,67.85
2017-05-01T01:10:54.529Z,68.33
2017-05-01T01:12:15.726Z,68.04
2017-05-01T01:13:37.251Z,68.13
2017-05-01T01:14:59.510Z,68.61
2017-05-01T01:16:21.744Z,68.9
2017-05-01T01:17:43.899Z,68.42
2017-05-01T01:19:06.035Z,68.61
2017-05-01T01:20:27.907Z,68.61
2017-05-01T01:21:50.034Z,68.8
2017-05-01T01:23:12.201Z,68.33
2017-05-01T01:24:34.649Z,68.61
2017-05-01T01:25:56.169Z,68.8
2017-05-01T01:27:18.568Z,68.99
2017-05-01T01:28:40.721Z,69.37
2017-05-01T01:30:02.719Z,69.53
2017-05-01T01:31:24.532Z,69.09
2017-05-01T01:32:46.969Z,69.62
2017-05-01T01:34:08.819Z,69.62
2017-05-01T01:35:31.024Z,70.19
2017-05-01T01:36:53.188Z,70.1
2017-05-01T01:38:15.068Z,69.81
2017-05-01T01:39:36.587Z,69.91
2017-05-01T01:40:58.777Z,70
2017-05-01T01:42:20.920Z,70.38
2017-05-01T01:43:43.125Z,70.57
2017-05-01T01:45:04.978Z,70.57
2017-05-01T01:46:27.456Z,70.95
2017-05-01T01:47:49.928Z,71.23
2017-05-01T01:49:11.739Z,71.81
2017-05-01T01:50:34.216Z,71.71
2017-05-01T01:51:55.438Z,71.43
2017-05-01T01:53:16.628Z,71.81
2017-05-01T01:54:38.731Z,72
2017-05-01T01:56:00.888Z,71.71
2017-05-01T01:57:22.801Z,72.19
2017-05-01T01:58:44.323Z,72.09
2017-05-01T02:00:06.503Z,72.38
2017-05-01T02:01:28.659Z,72.38
2017-05-01T02:02:51.128Z,72.19
2017-05-01T02:04:12.335Z,72.66
2017-05-01T02:05:34.917Z,73.14
2017-05-01T02:06:56.804Z,73.33
2017-05-01T02:08:18.626Z,73.23
2017-05-01T02:09:40.125Z,73.33
2017-05-01T02:11:02.651Z,73.23
2017-05-01T02:12:24.545Z,72.95
2017-05-01T02:13:46.389Z,73.04
2017-05-01T02:15:08.530Z,72.95
2017-05-01T02:16:30.739Z,73.33
2017-05-01T02:17:53.225Z,72.95
2017-05-01T02:19:15.057Z,73.61
2017-05-01T02:20:36.588Z,73.8
2017-05-01T02:21:58.663Z,73.86
2017-05-01T02:23:20.818Z,73.67
2017-05-01T02:24:42.637Z,73.8
2017-05-01T02:26:04.786Z,73.71
2017-05-01T02:27:27.298Z,73.99
2017-05-01T02:28:49.138Z,73.9
2017-05-01T02:30:10.644Z,74.52
2017-05-01T02:31:32.530Z,74.37
2017-05-01T02:32:54.357Z,74.47
2017-05-01T02:34:16.237Z,74.37
2017-05-01T02:35:37.748Z,74.47
2017-05-01T02:36:59.569Z,74.75
2017-05-01T02:38:21.647Z,74.75
2017-05-01T02:39:42.648Z,74.52
2017-05-01T02:41:04.776Z,74.47
2017-05-01T02:42:26.914Z,74.43
2017-05-01T02:43:49.049Z,74.56
2017-05-01T02:45:11.192Z,75.04
2017-05-01T02:46:33.328Z,74.94
2017-05-01T02:47:54.838Z,74.94
2017-05-01T02:49:16.617Z,75.04
2017-05-01T02:50:38.558Z,75.42
2017-05-01T02:52:00.698Z,75.76
2017-05-01T02:53:22.548Z,75.85
2017-05-01T02:54:45.069Z,76.04
2017-05-01T02:56:06.877Z,76.04
2017-05-01T02:57:29.076Z,76.04
2017-05-01T02:58:50.289Z,75.95
2017-05-01T03:00:13.042Z,76.23
2017-05-01T03:01:34.860Z,76.42
2017-05-01T03:02:57.402Z,76.23
2017-05-01T03:04:19.547Z,76.61
2017-05-01T03:05:41.673Z,76.99
2017-05-01T03:07:03.227Z,76.9
2017-05-01T03:08:25.089Z,76.61
2017-05-01T03:09:46.928Z,77.09
2017-05-01T03:11:09.130Z,76.8
2017-05-01T03:12:31.330Z,77.47
2017-05-01T03:13:53.488Z,77.56
2017-05-01T03:15:15.657Z,77.56
2017-05-01T03:16:37.415Z,77.37
2017-05-01T03:17:59.238Z,77.66
2017-05-01T03:19:21.416Z,77.84
2017-05-01T03:20:43.251Z,77.84
2017-05-01T03:22:05.096Z,77.94
2017-05-01T03:23:27.282Z,78.03
2017-05-01T03:24:49.740Z,78.03
2017-05-01T03:26:11.878Z,77.84
2017-05-01T03:27:34.796Z,78.42
2017-05-01T03:28:56.303Z,78.51
2017-05-01T03:30:18.147Z,78.23
2017-05-01T03:31:39.353Z,78.61
2017-05-01T03:33:01.847Z,78.32
2017-05-01T03:34:23.698Z,78.51
2017-05-01T03:35:45.213Z,78.8
2017-05-01T03:37:07.819Z,78.51
2017-05-01T03:38:29.886Z,78.99
2017-05-01T03:39:51.718Z,78.89
2017-05-01T03:41:13.264Z,78.99
2017-05-01T03:42:35.418Z,78.99
2017-05-01T03:43:58.135Z,78.7
2017-05-01T03:45:20.628Z,78.61
2017-05-01T03:46:42.150Z,79.17
2017-05-01T03:48:03.968Z,79.46
2017-05-01T03:49:25.838Z,79.17
2017-05-01T03:50:47.747Z,79.17
2017-05-01T03:52:09.571Z,78.89
2017-05-01T03:53:32.034Z,79.17
2017-05-01T03:54:53.588Z,79.36
2017-05-01T03:56:15.758Z,79.17
2017-05-01T03:57:38.306Z,79.46
2017-05-01T03:59:00.759Z,79.17
2017-05-01T04:00:23.260Z,79.65
2017-05-01T04:01:44.490Z,79.65
2017-05-01T04:03:06.515Z,79.65
2017-05-01T04:04:28.104Z,79.46
2017-05-01T04:05:50.270Z,79.65
2017-05-01T04:07:12.553Z,79.27
2017-05-01T04:08:35.118Z,79.65
2017-05-01T04:09:56.328Z,79.17
2017-05-01T04:11:18.200Z,79.55
2017-05-01T04:12:40.669Z,79.27
2017-05-01T04:14:02.557Z,79.65
2017-05-01T04:15:24.092Z,79.36
2017-05-01T04:16:46.817Z,79.55
2017-05-01T04:18:08.333Z,80.32
2017-05-01T04:19:30.790Z,80.13
2017-05-01T04:20:52.678Z,80.03
2017-05-01T04:22:15.218Z,80.22
2017-05-01T04:23:36.733Z,80.13
2017-05-01T04:24:58.950Z,80.03
2017-05-01T04:26:20.774Z,80.13
2017-05-01T04:27:43.157Z,79.46
2017-05-01T04:29:05.606Z,79.65
2017-05-01T04:30:27.757Z,79.55
2017-05-01T04:31:48.944Z,79.65
2017-05-01T04:33:11.189Z,79.74
2017-05-01T04:34:33.356Z,79.17
2017-05-01T04:35:55.214Z,79.08
2017-05-01T04:37:16.868Z,79.31
2017-05-01T04:38:39.000Z,78.51
2017-05-01T04:40:01.143Z,78.45
2017-05-01T04:41:22.680Z,78.36
2017-05-01T04:42:44.195Z,78.83
2017-05-01T04:44:06.696Z,78.74
2017-05-01T04:45:28.215Z,78.27
2017-05-01T04:46:49.725Z,78.45
2017-05-01T04:48:10.928Z,77.98
2017-05-01T04:49:33.019Z,77.89
2017-05-01T04:50:55.484Z,78.27
2017-05-01T04:52:17.010Z,77.79
2017-05-01T04:53:39.229Z,77.6
2017-05-01T04:55:00.999Z,77.12
2017-05-01T04:56:22.522Z,77.51
2017-05-01T04:57:44.336Z,76.84
2017-05-01T04:59:06.489Z,76.93
2017-05-01T05:00:28.929Z,76.88
2017-05-01T05:01:50.426Z,76.31
2017-05-01T05:03:12.422Z,76.12
2017-05-01T05:04:34.665Z,76.69
2017-05-01T05:05:56.816Z,76.12
2017-05-01T05:07:18.371Z,76.12
2017-05-01T05:08:40.880Z,75.84
2017-05-01T05:10:02.387Z,75.64
2017-05-01T05:11:24.308Z,75.45
2017-05-01T05:12:46.523Z,75.55
2017-05-01T05:14:08.479Z,75.17
2017-05-01T05:15:30.963Z,74.69
2017-05-01T05:16:53.080Z,73.3
2017-05-01T05:18:15.611Z,72.35
2017-05-01T05:19:37.769Z,69.92
2017-05-01T05:20:59.611Z,68.62
2017-05-01T05:22:21.859Z,67.95
2017-05-01T05:23:44.001Z,66.85
2017-05-01T05:25:05.851Z,66.08
2017-05-01T05:26:28.056Z,66.37
2017-05-01T05:27:50.349Z,65.99
2017-05-01T05:29:12.171Z,65.23
2017-05-01T05:30:34.329Z,64.12
2017-05-01T05:31:56.524Z,62.4
2017-05-01T05:33:18.719Z,61.1
2017-05-01T05:34:41.237Z,60.14
2017-05-01T05:36:02.819Z,60.81
2017-05-01T05:37:24.659Z,60.91
2017-05-01T05:38:46.487Z,59.19
2017-05-01T05:40:08.037Z,56.84
2017-05-01T05:41:29.942Z,56.67
2017-05-01T05:42:52.086Z,55.15
2017-05-01T05:44:13.858Z,53.55
2017-05-01T05:45:35.838Z,52.72
2017-05-01T05:46:57.661Z,53
2017-05-01T05:48:19.839Z,52.72
2017-05-01T05:49:41.835Z,52.72
2017-05-01T05:51:03.741Z,52.34
2017-05-01T05:52:25.587Z,53.39
2017-05-01T05:53:47.100Z,53.58
2017-05-01T05:55:08.906Z,52.15
2017-05-01T05:56:31.059Z,53.1
2017-05-01T05:57:53.234Z,53.17
2017-05-01T05:59:14.448Z,52.15
2017-05-01T06:00:35.949Z,51.29
2017-05-01T06:01:58.107Z,50.29
2017-05-01T06:03:19.627Z,48.66
2017-05-01T06:04:40.959Z,48.68
2017-05-01T06:06:02.418Z,50.29
2017-05-01T06:07:24.183Z,51.21
2017-05-01T06:08:46.647Z,49.59
2017-05-01T06:10:08.809Z,49.33
2017-05-01T06:11:31.321Z,48.66
2017-05-01T06:12:53.481Z,46.87
2017-05-01T06:14:15.637Z,46.8
2017-05-01T06:15:37.790Z,45.65
2017-05-01T06:17:00.259Z,46.03
2017-05-01T06:18:21.814Z,46.41
2017-05-01T06:19:43.971Z,46.61
2017-05-01T06:21:05.809Z,46.67
2017-05-01T06:22:28.287Z,46.41
2017-05-01T06:23:50.252Z,46.39
2017-05-01T06:25:12.761Z,46.03
2017-05-01T06:26:34.699Z,45.84
2017-05-01T06:27:57.300Z,47.27
2017-05-01T06:29:19.450Z,48.28
2017-05-01T06:30:41.300Z,47.53
2017-05-01T06:32:03.467Z,47.25
2017-05-01T06:33:26.025Z,46.12
2017-05-01T06:34:48.178Z,46.12
2017-05-01T06:36:10.326Z,46.48
2017-05-01T06:37:32.471Z,47.06
2017-05-01T06:38:54.718Z,45.91
2017-05-01T06:40:16.674Z,43.56
2017-05-01T06:41:38.857Z,41.67
2017-05-01T06:43:00.707Z,43.51
2017-05-01T06:44:22.590Z,45.38
2017-05-01T06:45:44.736Z,45.72
2017-05-01T06:47:06.637Z,44.9
2017-05-01T06:48:29.208Z,43.01
2017-05-01T06:49:50.812Z,42.34
2017-05-01T06:51:12.971Z,41.11
2017-05-01T06:52:35.138Z,40.47
2017-05-01T06:53:56.776Z,41.13
2017-05-01T06:55:19.546Z,43.77
2017-05-01T06:56:40.747Z,44.9
2017-05-01T06:58:02.588Z,43.95
2017-05-01T06:59:24.550Z,43.87
2017-05-01T07:00:46.958Z,43.37
2017-05-01T07:02:09.219Z,42.34
2017-05-01T07:03:30.779Z,42.44
2017-05-01T07:04:52.690Z,41.88
2017-05-01T07:06:15.138Z,43.03
2017-05-01T07:07:36.659Z,42.72
2017-05-01T07:08:58.888Z,40.83
2017-05-01T07:10:20.538Z,40
2017-05-01T07:11:42.898Z,41.63
2017-05-01T07:13:05.105Z,43.1
2017-05-01T07:14:26.772Z,44.62
2017-05-01T07:15:48.988Z,43.92
2017-05-01T07:17:11.078Z,42.24
2017-05-01T07:18:33.257Z,43.01
2017-05-01T07:19:55.457Z,44.33
2017-05-01T07:21:17.655Z,44.62
2017-05-01T07:22:38.810Z,46.03
2017-05-01T07:24:01.325Z,45.74
2017-05-01T07:25:23.496Z,46.48
2017-05-01T07:26:45.643Z,47.16
2017-05-01T07:28:08.176Z,48.02
2017-05-01T07:29:30.060Z,47.61
2017-05-01T07:30:52.650Z,46.3
2017-05-01T07:32:14.199Z,46.03
2017-05-01T07:33:36.617Z,45.74
2017-05-01T07:34:59.206Z,44.81
2017-05-01T07:36:21.078Z,45.67
2017-05-01T07:37:43.098Z,46.31
2017-05-01T07:39:05.250Z,46.51
2017-05-01T07:40:27.109Z,46.72
2017-05-01T07:41:48.941Z,45.94
2017-05-01T07:43:10.733Z,44.62
2017-05-01T07:44:32.709Z,43.59
2017-05-01T07:45:54.239Z,44.54
2017-05-01T07:47:16.872Z,45.76
2017-05-01T07:48:38.731Z,46.77
2017-05-01T07:50:00.943Z,47.92
2017-05-01T07:51:23.137Z,48.18
2017-05-01T07:52:45.323Z,46.77
2017-05-01T07:54:07.510Z,45.86
2017-05-01T07:55:30.362Z,44.62
2017-05-01T07:56:51.957Z,44.26
2017-05-01T07:58:14.546Z,45.67
2017-05-01T07:59:36.448Z,46.98
2017-05-01T08:00:58.972Z,47.63
2017-05-01T08:02:21.442Z,48.49
2017-05-01T08:03:43.644Z,49.35
2017-05-01T08:05:05.168Z,50.57
2017-05-01T08:06:27.579Z,51.24
2017-05-01T08:07:49.739Z,52.46
2017-05-01T08:09:11.299Z,51.98
2017-05-01T08:10:33.838Z,51.05
2017-05-01T08:11:56.352Z,51.62
2017-05-01T08:13:18.921Z,51.15
2017-05-01T08:14:41.100Z,50.76
2017-05-01T08:16:03.616Z,50.95
2017-05-01T08:17:26.100Z,51.43
2017-05-01T08:18:48.619Z,51.34
2017-05-01T08:20:10.518Z,51.7
2017-05-01T08:21:32.510Z,51.05
2017-05-01T08:22:55.230Z,50.67
2017-05-01T08:24:17.210Z,51.53
2017-05-01T08:25:39.410Z,50.38
2017-05-01T08:27:01.619Z,49.64
2017-05-01T08:28:24.112Z,49.84
2017-05-01T08:29:46.259Z,50.48
2017-05-01T08:31:08.440Z,50.19
2017-05-01T08:32:30.668Z,50.38
2017-05-01T08:33:53.103Z,50.57
2017-05-01T08:35:15.337Z,50.19
2017-05-01T08:36:37.831Z,50.02
2017-05-01T08:38:00.476Z,49.74
2017-05-01T08:39:22.310Z,50.02
2017-05-01T08:40:44.918Z,49.35
2017-05-01T08:42:07.189Z,50.41
2017-05-01T08:43:29.358Z,49.64
2017-05-01T08:44:51.816Z,50.02
2017-05-01T08:46:14.021Z,49.66
2017-05-01T08:47:35.863Z,48.8
2017-05-01T08:48:57.741Z,49.35
2017-05-01T08:50:20.309Z,49.55
2017-05-01T08:51:42.850Z,49.48
2017-05-01T08:53:05.016Z,49.84
2017-05-01T08:54:27.500Z,49.93
2017-05-01T08:55:50.215Z,49.57
2017-05-01T08:57:12.458Z,50.6
2017-05-01T08:58:34.638Z,50.12
2017-05-01T08:59:56.220Z,49.09
2017-05-01T09:01:18.631Z,48.33
2017-05-01T09:03:13.110Z,49.45
2017-05-01T09:04:36.032Z,49.84
2017-05-01T09:05:57.876Z,50.79
2017-05-01T09:07:20.075Z,50.21
2017-05-01T09:08:42.599Z,49.74
2017-05-01T09:10:04.510Z,50.02
2017-05-01T09:11:27.053Z,49.74
2017-05-01T09:12:49.287Z,49.84
2017-05-01T09:14:11.460Z,49.74
2017-05-01T09:15:34.029Z,49.74
2017-05-01T09:16:56.997Z,49.64
2017-05-01T09:18:19.594Z,49.55
2017-05-01T09:19:42.291Z,49.45
2017-05-01T09:21:04.512Z,49.16
2017-05-01T09:22:26.959Z,49.45
2017-05-01T09:23:49.138Z,49.55
2017-05-01T09:25:11.335Z,49.35
2017-05-01T09:26:32.941Z,48.61
2017-05-01T09:27:55.384Z,48.07
2017-05-01T09:29:17.247Z,47.47
2017-05-01T09:30:39.387Z,47.47
2017-05-01T09:32:01.335Z,47.11
2017-05-01T09:33:23.907Z,46.62
2017-05-01T09:34:46.507Z,46.25
2017-05-01T09:36:09.058Z,46.82
2017-05-01T09:37:30.292Z,47.66
2017-05-01T09:38:52.519Z,48.04
2017-05-01T09:40:15.039Z,48.07
2017-05-01T09:41:37.219Z,47.3
2017-05-01T09:42:59.455Z,46.46
2017-05-01T09:44:21.670Z,46.17
2017-05-01T09:45:43.849Z,45.79
2017-05-01T09:47:06.382Z,46.17
2017-05-01T09:48:28.256Z,46.65
2017-05-01T09:49:50.673Z,46.17
2017-05-01T09:51:12.942Z,46.08
2017-05-01T09:52:35.477Z,45.59
2017-05-01T09:53:57.648Z,45.14
2017-05-01T09:55:19.760Z,44.47
2017-05-01T09:56:41.941Z,44.85
2017-05-01T09:58:03.792Z,44.66
2017-05-01T09:59:25.746Z,44.37
2017-05-01T10:00:48.595Z,44.54
2017-05-01T10:02:10.540Z,44.09
2017-05-01T10:03:32.740Z,43.51
2017-05-01T10:04:55.251Z,43.8
2017-05-01T10:06:18.005Z,44.56
2017-05-01T10:07:39.857Z,44.54
2017-05-01T10:09:02.057Z,45.4
2017-05-01T10:10:24.628Z,44.73
2017-05-01T10:11:47.479Z,43.9
2017-05-01T10:13:09.780Z,43.7
2017-05-01T10:14:32.407Z,43.7
2017-05-01T10:15:54.295Z,43.7
2017-05-01T10:17:17.031Z,43.7
2017-05-01T10:18:39.189Z,43.51
2017-05-01T10:20:00.870Z,43.23
2017-05-01T10:21:23.099Z,42.77
2017-05-01T10:22:45.584Z,42.86
2017-05-01T10:24:08.081Z,42.67
2017-05-01T10:25:30.465Z,42.57
2017-05-01T10:26:52.377Z,42.38
2017-05-01T10:28:14.670Z,42.38
2017-05-01T10:29:36.555Z,42.21
2017-05-01T10:30:58.424Z,41.93
2017-05-01T10:32:21.200Z,40.87
2017-05-01T10:33:43.470Z,41.25
2017-05-01T10:35:05.329Z,41.9
2017-05-01T10:36:27.507Z,42.47
2017-05-01T10:37:49.379Z,43.53
2017-05-01T10:39:12.181Z,44.09
2017-05-01T10:40:34.356Z,43.41
2017-05-01T10:41:56.857Z,43.32
2017-05-01T10:43:18.477Z,42.96
2017-05-01T10:44:40.589Z,42.96
2017-05-01T10:46:02.903Z,41.54
2017-05-01T10:47:25.105Z,42.57
2017-05-01T10:48:46.957Z,42.38
2017-05-01T10:50:09.073Z,42.67
2017-05-01T10:51:30.943Z,42.19
2017-05-01T10:52:53.132Z,42.19
2017-05-01T10:54:15.637Z,42.29
2017-05-01T10:55:38.086Z,41.63
2017-05-01T10:57:00.574Z,41.44
2017-05-01T10:58:23.158Z,41.9
2017-05-01T10:59:45.357Z,42
2017-05-01T11:01:07.541Z,41.71
2017-05-01T11:02:29.406Z,40.96
2017-05-01T11:03:50.652Z,41.83
2017-05-01T11:05:13.189Z,40.96
2017-05-01T11:06:35.351Z,41.06
2017-05-01T11:07:57.854Z,40.31
2017-05-01T11:09:19.409Z,40.5
2017-05-01T11:10:41.028Z,40.7
2017-05-01T11:12:03.826Z,40.5
2017-05-01T11:13:25.719Z,40.6
2017-05-01T11:14:47.918Z,39.76
2017-05-01T11:16:10.487Z,39.64
2017-05-01T11:17:32.748Z,39.64
2017-05-01T11:18:55.034Z,39.85
2017-05-01T11:20:17.295Z,40.72
2017-05-01T11:21:39.789Z,40.99
2017-05-01T11:23:02.597Z,40.89
2017-05-01T11:24:24.767Z,40.29
2017-05-01T11:25:46.937Z,40.1
2017-05-01T11:27:08.146Z,40.22
2017-05-01T11:28:30.618Z,39.95
2017-05-01T11:29:52.837Z,39.66
2017-05-01T11:31:14.929Z,39.64
2017-05-01T11:32:37.458Z,40.7
2017-05-01T11:34:00.305Z,40.02
2017-05-01T11:35:21.999Z,40.12
2017-05-01T11:36:44.535Z,41.16
2017-05-01T11:38:06.728Z,40.87
2017-05-01T11:39:29.337Z,41.16
2017-05-01T11:40:51.195Z,40.77
2017-05-01T11:42:13.709Z,41.16
2017-05-01T11:43:35.898Z,41.61
2017-05-01T11:44:58.709Z,41.44
2017-05-01T11:46:20.942Z,41.73
2017-05-01T11:47:43.239Z,42.02
2017-05-01T11:49:05.535Z,42.6
2017-05-01T11:50:28.031Z,42.5
2017-05-01T11:51:50.229Z,41.83
2017-05-01T11:53:12.752Z,42.5
2017-05-01T11:54:34.652Z,42.5
2017-05-01T11:55:57.083Z,42.98
2017-05-01T11:57:19.269Z,43.27
2017-05-01T11:58:41.460Z,42.69
2017-05-01T12:00:03.439Z,42.43
2017-05-01T12:01:26.263Z,42.9
2017-05-01T12:02:48.130Z,43.07
2017-05-01T12:04:10.341Z,42.3
2017-05-01T12:05:32.196Z,42.21
2017-05-01T12:06:55.296Z,42.3
2017-05-01T12:08:17.509Z,42.77
2017-05-01T12:09:39.996Z,42.5
2017-05-01T12:11:02.517Z,41.83
2017-05-01T12:12:25.047Z,41.73
2017-05-01T12:13:47.264Z,40.79
2017-05-01T12:15:09.451Z,40.7
2017-05-01T12:16:31.946Z,38.99
2017-05-01T12:17:54.368Z,39.28
2017-05-01T12:19:16.854Z,38.7
2017-05-01T12:20:39.075Z,39.56
2017-05-01T12:22:01.268Z,39.66
2017-05-01T12:23:23.358Z,38.81
2017-05-01T12:24:45.533Z,38.14
2017-05-01T12:26:07.734Z,37.66
2017-05-01T12:27:29.608Z,38.24
2017-05-01T12:28:52.539Z,38.6
2017-05-01T12:30:14.818Z,37.74
2017-05-01T12:31:37.017Z,37.27
2017-05-01T12:32:59.555Z,37.95
2017-05-01T12:34:22.303Z,37.47
2017-05-01T12:35:44.153Z,36.99
2017-05-01T12:37:06.633Z,37.1
2017-05-01T12:38:28.938Z,36.82
2017-05-01T12:39:51.988Z,37.59
2017-05-01T12:41:14.485Z,37.95
2017-05-01T12:42:36.682Z,39.58
2017-05-01T12:43:58.880Z,39.93
2017-05-01T12:45:21.727Z,40.12
2017-05-01T12:46:43.591Z,40.6
2017-05-01T12:48:06.097Z,39.64
2017-05-01T12:49:28.287Z,39.37
2017-05-01T12:50:50.831Z,38.79
2017-05-01T12:52:13.328Z,38.24
2017-05-01T12:53:35.301Z,37.49
2017-05-01T12:54:57.551Z,37.97
2017-05-01T12:56:20.085Z,38.53
2017-05-01T12:57:42.279Z,39.66
2017-05-01T12:59:05.067Z,39.11
2017-05-01T13:00:27.287Z,38.62
2017-05-01T13:01:50.097Z,38.79
2017-05-01T13:03:12.279Z,38.79
2017-05-01T13:04:34.447Z,38.68
2017-05-01T13:05:56.708Z,38.32
2017-05-01T13:07:19.472Z,37.35
2017-05-01T13:08:41.948Z,36.41
2017-05-01T13:10:03.813Z,36.15
2017-05-01T13:11:25.687Z,36.72
2017-05-01T13:12:48.576Z,36.72
2017-05-01T13:14:10.498Z,37.47
2017-05-01T13:15:33.068Z,36.9
2017-05-01T13:16:55.225Z,37.08
2017-05-01T13:18:17.782Z,37.27
2017-05-01T13:19:39.776Z,36.62
2017-05-01T13:21:01.347Z,36.91
2017-05-01T13:22:23.207Z,36.82
2017-05-01T13:23:44.984Z,37.37
2017-05-01T13:25:06.943Z,37.76
2017-05-01T13:26:29.467Z,38.04
2017-05-01T13:27:51.397Z,38.72
2017-05-01T13:29:13.873Z,38.99
2017-05-01T13:30:35.714Z,39.47
2017-05-01T13:31:57.920Z,39.18
2017-05-01T13:33:19.445Z,39.66
2017-05-01T13:34:42.280Z,40.12
2017-05-01T13:36:04.528Z,40.5
2017-05-01T13:37:26.742Z,41.17
2017-05-01T13:38:49.354Z,40.99
2017-05-01T13:40:12.214Z,40.79
2017-05-01T13:41:33.771Z,40.43
2017-05-01T13:42:56.280Z,40.62
2017-05-01T13:44:18.766Z,39.58
2017-05-01T13:45:41.970Z,39.12
2017-05-01T13:47:04.485Z,38.95
2017-05-01T13:48:27.007Z,38.66
2017-05-01T13:49:48.946Z,38.09
2017-05-01T13:51:11.365Z,38.37
2017-05-01T13:52:33.880Z,38.47
2017-05-01T13:53:56.104Z,38.95
2017-05-01T13:55:18.288Z,39.31
2017-05-01T13:56:40.816Z,40.37
2017-05-01T13:58:03.327Z,40.45
2017-05-01T13:59:25.818Z,41.96
2017-05-01T14:00:48.310Z,42.43
2017-05-01T14:02:10.417Z,42.61
2017-05-01T14:03:32.577Z,43.48
2017-05-01T14:04:54.174Z,44.7
2017-05-01T14:06:16.704Z,44.7
2017-05-01T14:07:39.158Z,44.03
2017-05-01T14:09:01.079Z,43.36
2017-05-01T14:10:23.734Z,42.69
2017-05-01T14:11:46.223Z,42.5
2017-05-01T14:13:08.759Z,41.93
2017-05-01T14:14:30.950Z,41.93
2017-05-01T14:15:53.119Z,42.3
2017-05-01T14:17:15.355Z,42.61
2017-05-01T14:18:37.896Z,43
2017-05-01T14:20:00.101Z,43.48
2017-05-01T14:21:21.624Z,43.96
2017-05-01T14:22:44.129Z,43.87
2017-05-01T14:24:06.557Z,43.48
2017-05-01T14:25:29.118Z,43.87
2017-05-01T14:26:50.977Z,44.73
2017-05-01T14:28:13.160Z,45.09
2017-05-01T14:29:35.684Z,45.76
2017-05-01T14:30:58.203Z,44.7
2017-05-01T14:32:20.412Z,44.8
2017-05-01T14:33:42.936Z,45.45
2017-05-01T14:35:05.526Z,45.83
2017-05-01T14:36:27.390Z,45.67
2017-05-01T14:37:49.649Z,44.68
2017-05-01T14:39:12.245Z,44.51
2017-05-01T14:40:34.804Z,43.91
2017-05-01T14:41:56.998Z,43.73
2017-05-01T14:43:19.320Z,43.82
2017-05-01T14:44:41.189Z,43.36
2017-05-01T14:46:03.656Z,42.98
2017-05-01T14:47:25.833Z,42.6
2017-05-01T14:48:48.016Z,42.98
2017-05-01T14:50:10.278Z,42.4
2017-05-01T14:51:33.278Z,42.21
2017-05-01T14:52:55.797Z,41.66
2017-05-01T14:54:18.318Z,41.46
2017-05-01T14:55:40.515Z,41.17
2017-05-01T14:57:04.697Z,40.79
2017-05-01T14:58:27.438Z,40.99
2017-05-01T14:59:49.339Z,40.99
2017-05-01T15:01:11.288Z,41.37
2017-05-01T15:02:33.918Z,41.85
2017-05-01T15:03:56.106Z,41.75
2017-05-01T15:05:18.641Z,40.99
2017-05-01T15:06:40.273Z,41.66
2017-05-01T15:08:02.781Z,41.85
2017-05-01T15:09:24.995Z,42.04
2017-05-01T15:10:47.598Z,42.04
2017-05-01T15:12:09.908Z,42.04
2017-05-01T15:13:32.467Z,41.75
2017-05-01T15:14:55.364Z,40.43
2017-05-01T15:16:17.590Z,40.5
2017-05-01T15:17:40.111Z,40.52
2017-05-01T15:19:02.529Z,40.52
2017-05-01T15:20:25.038Z,41.29
2017-05-01T15:21:47.660Z,41
2017-05-01T15:23:09.519Z,40.43
2017-05-01T15:24:32.489Z,41.1
2017-05-01T15:25:54.646Z,41.77
2017-05-01T15:27:17.166Z,40.23
2017-05-01T15:28:39.472Z,40.62
2017-05-01T15:30:02.257Z,40.14
2017-05-01T15:31:24.453Z,40.23
2017-05-01T15:32:46.328Z,40.91
2017-05-01T15:34:08.838Z,41.1
2017-05-01T15:35:31.088Z,40.62
2017-05-01T15:36:53.607Z,40.43
2017-05-01T15:38:15.479Z,40.83
2017-05-01T15:39:38.066Z,40.64
2017-05-01T15:41:01.012Z,40.55
2017-05-01T15:42:23.538Z,40.33
2017-05-01T15:44:18.037Z,40.64
2017-05-01T15:45:40.560Z,41
2017-05-01T15:47:03.381Z,41.96
2017-05-01T15:48:26.174Z,42.23
2017-05-01T15:49:48.402Z,42.33
2017-05-01T15:51:10.922Z,42.13
2017-05-01T15:52:33.125Z,42.35
2017-05-01T15:53:55.014Z,43
2017-05-01T15:55:17.221Z,43.38
2017-05-01T15:56:39.273Z,43.29
2017-05-01T15:58:01.508Z,43.96
2017-05-01T15:59:24.108Z,44.15
2017-05-01T16:00:46.387Z,45
2017-05-01T16:02:09.287Z,44.8
2017-05-01T16:03:31.610Z,44.9
2017-05-01T16:04:53.488Z,45.18
2017-05-01T16:06:15.666Z,45.37
2017-05-01T16:07:38.187Z,44.9
2017-05-01T16:09:00.070Z,44.54
2017-05-01T16:10:22.258Z,44.82
2017-05-01T16:11:44.492Z,44.9
2017-05-01T16:13:07.351Z,44.82
2017-05-01T16:14:28.909Z,45
2017-05-01T16:15:51.309Z,45.21
2017-05-01T16:17:13.196Z,45.01
2017-05-01T16:18:35.715Z,44.63
2017-05-01T16:19:57.598Z,43.87
2017-05-01T16:21:19.484Z,43.87
2017-05-01T16:22:41.695Z,44.54
2017-05-01T16:24:04.494Z,44.82
2017-05-01T16:25:26.693Z,44.92
2017-05-01T16:26:49.350Z,45.98
2017-05-01T16:28:11.746Z,45.68
2017-05-01T16:29:33.974Z,45.01
2017-05-01T16:30:56.523Z,45.11
2017-05-01T16:32:19.149Z,44.92
2017-05-01T16:33:41.719Z,45.4
2017-05-01T16:35:04.935Z,45.37
2017-05-01T16:36:27.118Z,46.14
2017-05-01T16:37:49.089Z,46.14
2017-05-01T16:39:11.720Z,46.26
2017-05-01T16:40:34.208Z,45.5
2017-05-01T16:41:56.406Z,45.78
2017-05-01T16:43:18.696Z,44.92
2017-05-01T16:44:40.934Z,44.44
2017-05-01T16:46:03.760Z,44.73
2017-05-01T16:47:26.265Z,44.63
2017-05-01T16:48:48.776Z,45.98
2017-05-01T16:50:11.285Z,45.68
2017-05-01T16:51:33.878Z,45.5
2017-05-01T16:52:55.815Z,45.01
2017-05-01T16:54:18.107Z,45.21
2017-05-01T16:55:40.539Z,44.94
2017-05-01T16:57:02.712Z,45.04
2017-05-01T16:58:25.297Z,45.61
2017-05-01T16:59:47.177Z,46
2017-05-01T17:01:09.720Z,45.61
2017-05-01T17:02:31.878Z,45.98
2017-05-01T17:03:54.458Z,46.07
2017-05-01T17:05:16.697Z,46.26
2017-05-01T17:06:38.931Z,46.26
2017-05-01T17:08:01.561Z,46.74
2017-05-01T17:09:24.043Z,46.53
2017-05-01T17:10:45.668Z,47.01
2017-05-01T17:12:07.918Z,46.72
2017-05-01T17:13:30.062Z,47.3
2017-05-01T17:14:52.613Z,47.49
2017-05-01T17:16:14.917Z,47.49
2017-05-01T17:17:36.779Z,47.58
2017-05-01T17:18:59.527Z,47.49
2017-05-01T17:20:21.736Z,47.58
2017-05-01T17:21:44.558Z,47.2
2017-05-01T17:23:06.426Z,47.77
2017-05-01T17:24:27.951Z,47.27
2017-05-01T17:25:50.448Z,47.2
2017-05-01T17:27:13.059Z,48.13
2017-05-01T17:28:34.939Z,48.61
2017-05-01T17:29:57.849Z,48.43
2017-05-01T17:31:20.376Z,48.8
2017-05-01T17:32:42.640Z,48.69
2017-05-01T17:34:04.556Z,49
2017-05-01T17:35:26.803Z,49.16
2017-05-01T17:36:49.315Z,49.55
2017-05-01T17:38:11.574Z,49.65
2017-05-01T17:39:33.458Z,49.93
2017-05-01T17:40:56.282Z,50.03
2017-05-01T17:42:18.159Z,50.03
2017-05-01T17:43:40.054Z,50.32
2017-05-01T17:45:02.242Z,49.65